sensor_id;sensor_type;location;lat;lon;timestamp;pressure;altitude;pressure_sealevel;temperature;humidity
72285;BME280;60220;53.552;10.092;2023-03-01T00:01:28;102959.91;;;1.32;68.52
72285;BME280;60220;53.552;10.092;2023-03-01T00:03:55;102960.25;;;1.23;69.00
72285;BME280;60220;53.552;10.092;2023-03-01T00:06:22;102963.88;;;1.69;67.49
72285;BME280;60220;53.552;10.092;2023-03-01T00:08:49;102954.75;;;1.90;66.44
72285;BME280;60220;53.552;10.092;2023-03-01T00:11:20;102960.13;;;1.79;66.87
72285;BME280;60220;53.552;10.092;2023-03-01T00:13:48;102951.63;;;1.81;66.15
72285;BME280;60220;53.552;10.092;2023-03-01T00:16:18;102952.97;;;1.89;66.45
72285;BME280;60220;53.552;10.092;2023-03-01T00:18:45;102945.66;;;1.82;66.50
72285;BME280;60220;53.552;10.092;2023-03-01T00:21:12;102951.06;;;2.01;66.09
72285;BME280;60220;53.552;10.092;2023-03-01T00:23:39;102950.47;;;1.91;65.95
72285;BME280;60220;53.552;10.092;2023-03-01T00:26:07;102951.38;;;1.62;67.62
72285;BME280;60220;53.552;10.092;2023-03-01T00:28:35;102952.81;;;1.57;67.70
72285;BME280;60220;53.552;10.092;2023-03-01T00:31:03;102954.94;;;1.49;67.57
72285;BME280;60220;53.552;10.092;2023-03-01T00:33:30;102957.59;;;1.51;67.64
72285;BME280;60220;53.552;10.092;2023-03-01T00:35:57;102950.94;;;1.54;68.55
72285;BME280;60220;53.552;10.092;2023-03-01T00:38:24;102954.31;;;1.68;66.96
72285;BME280;60220;53.552;10.092;2023-03-01T00:40:51;102953.16;;;1.63;67.32
72285;BME280;60220;53.552;10.092;2023-03-01T00:43:18;102945.13;;;1.88;67.05
72285;BME280;60220;53.552;10.092;2023-03-01T00:45:48;102947.78;;;1.60;66.94
72285;BME280;60220;53.552;10.092;2023-03-01T00:48:15;102946.63;;;1.55;67.50
72285;BME280;60220;53.552;10.092;2023-03-01T00:50:41;102943.03;;;0.81;69.05
72285;BME280;60220;53.552;10.092;2023-03-01T00:53:08;102940.19;;;0.91;69.97
72285;BME280;60220;53.552;10.092;2023-03-01T00:55:35;102945.41;;;1.06;69.66
72285;BME280;60220;53.552;10.092;2023-03-01T00:58:02;102940.38;;;1.37;68.98
72285;BME280;60220;53.552;10.092;2023-03-01T01:00:29;102945.69;;;1.10;69.18
72285;BME280;60220;53.552;10.092;2023-03-01T01:02:57;102942.16;;;0.95;69.59
72285;BME280;60220;53.552;10.092;2023-03-01T01:05:26;102945.00;;;0.85;69.81
72285;BME280;60220;53.552;10.092;2023-03-01T01:07:52;102939.94;;;1.73;67.30
72285;BME280;60220;53.552;10.092;2023-03-01T01:10:21;102932.88;;;1.26;68.09
72285;BME280;60220;53.552;10.092;2023-03-01T01:12:48;102930.81;;;1.65;68.00
72285;BME280;60220;53.552;10.092;2023-03-01T01:15:15;102922.41;;;1.98;66.75
72285;BME280;60220;53.552;10.092;2023-03-01T01:17:42;102918.75;;;1.80;66.27
72285;BME280;60220;53.552;10.092;2023-03-01T01:20:11;102927.38;;;1.79;67.06
72285;BME280;60220;53.552;10.092;2023-03-01T01:22:38;102917.28;;;2.14;66.64
72285;BME280;60220;53.552;10.092;2023-03-01T01:25:05;102923.50;;;1.87;66.37
72285;BME280;60220;53.552;10.092;2023-03-01T01:27:32;102919.75;;;1.82;66.92
72285;BME280;60220;53.552;10.092;2023-03-01T01:29:59;102924.31;;;1.27;68.52
72285;BME280;60220;53.552;10.092;2023-03-01T01:32:25;102926.28;;;1.32;68.32
72285;BME280;60220;53.552;10.092;2023-03-01T01:34:52;102925.22;;;1.28;68.91
72285;BME280;60220;53.552;10.092;2023-03-01T01:37:20;102918.78;;;1.51;68.72
72285;BME280;60220;53.552;10.092;2023-03-01T01:39:50;102918.41;;;1.89;67.26
72285;BME280;60220;53.552;10.092;2023-03-01T01:42:18;102919.25;;;1.44;68.14
72285;BME280;60220;53.552;10.092;2023-03-01T01:44:46;102910.31;;;1.09;68.92
72285;BME280;60220;53.552;10.092;2023-03-01T01:47:14;102904.56;;;1.15;69.85
72285;BME280;60220;53.552;10.092;2023-03-01T01:49:45;102909.16;;;1.34;69.34
72285;BME280;60220;53.552;10.092;2023-03-01T01:52:17;102903.97;;;1.19;69.65
72285;BME280;60220;53.552;10.092;2023-03-01T01:54:52;102903.00;;;1.46;69.13
72285;BME280;60220;53.552;10.092;2023-03-01T01:57:23;102901.47;;;1.20;69.32
72285;BME280;60220;53.552;10.092;2023-03-01T01:59:54;102902.28;;;1.19;69.96
72285;BME280;60220;53.552;10.092;2023-03-01T02:02:23;102901.03;;;1.27;70.19
72285;BME280;60220;53.552;10.092;2023-03-01T02:04:54;102894.59;;;1.65;69.48
72285;BME280;60220;53.552;10.092;2023-03-01T02:07:30;102891.41;;;1.54;68.81
72285;BME280;60220;53.552;10.092;2023-03-01T02:09:58;102890.31;;;1.21;69.01
72285;BME280;60220;53.552;10.092;2023-03-01T02:12:25;102883.28;;;1.63;68.84
72285;BME280;60220;53.552;10.092;2023-03-01T02:14:54;102880.88;;;1.51;69.27
72285;BME280;60220;53.552;10.092;2023-03-01T02:17:23;102885.69;;;1.45;69.10
72285;BME280;60220;53.552;10.092;2023-03-01T02:19:59;102883.88;;;1.88;69.38
72285;BME280;60220;53.552;10.092;2023-03-01T02:22:29;102882.66;;;1.38;69.67
72285;BME280;60220;53.552;10.092;2023-03-01T02:25:06;102884.97;;;1.48;69.15
72285;BME280;60220;53.552;10.092;2023-03-01T02:27:42;102875.59;;;1.50;69.19
72285;BME280;60220;53.552;10.092;2023-03-01T02:30:13;102872.47;;;1.55;69.32
72285;BME280;60220;53.552;10.092;2023-03-01T02:32:40;102871.16;;;1.93;68.60
72285;BME280;60220;53.552;10.092;2023-03-01T02:35:12;102867.63;;;1.76;68.33
72285;BME280;60220;53.552;10.092;2023-03-01T02:37:40;102864.06;;;1.74;68.27
72285;BME280;60220;53.552;10.092;2023-03-01T02:40:11;102862.91;;;2.00;67.71
72285;BME280;60220;53.552;10.092;2023-03-01T02:42:46;102876.09;;;2.35;66.65
72285;BME280;60220;53.552;10.092;2023-03-01T02:45:16;102867.00;;;2.11;67.67
72285;BME280;60220;53.552;10.092;2023-03-01T02:47:43;102874.75;;;2.42;66.30
72285;BME280;60220;53.552;10.092;2023-03-01T02:50:19;102873.06;;;2.11;67.60
72285;BME280;60220;53.552;10.092;2023-03-01T02:52:57;102865.44;;;2.62;66.82
72285;BME280;60220;53.552;10.092;2023-03-01T02:55:27;102868.00;;;2.94;65.53
72285;BME280;60220;53.552;10.092;2023-03-01T02:57:55;102864.47;;;2.92;64.89
72285;BME280;60220;53.552;10.092;2023-03-01T03:00:26;102865.97;;;2.40;65.93
72285;BME280;60220;53.552;10.092;2023-03-01T03:02:56;102857.78;;;1.85;66.66
72285;BME280;60220;53.552;10.092;2023-03-01T03:05:25;102867.75;;;1.63;68.57
72285;BME280;60220;53.552;10.092;2023-03-01T03:07:52;102859.81;;;2.22;67.06
72285;BME280;60220;53.552;10.092;2023-03-01T03:10:21;102863.69;;;1.83;67.47
72285;BME280;60220;53.552;10.092;2023-03-01T03:12:51;102856.25;;;2.20;65.69
72285;BME280;60220;53.552;10.092;2023-03-01T03:15:22;102859.88;;;2.54;64.49
72285;BME280;60220;53.552;10.092;2023-03-01T03:17:53;102859.53;;;2.48;63.49
72285;BME280;60220;53.552;10.092;2023-03-01T03:20:22;102853.56;;;1.42;66.60
72285;BME280;60220;53.552;10.092;2023-03-01T03:22:51;102853.59;;;1.87;66.35
72285;BME280;60220;53.552;10.092;2023-03-01T03:25:19;102859.28;;;1.96;66.30
72285;BME280;60220;53.552;10.092;2023-03-01T03:27:50;102854.78;;;2.89;64.14
72285;BME280;60220;53.552;10.092;2023-03-01T03:30:23;102854.34;;;2.48;63.68
72285;BME280;60220;53.552;10.092;2023-03-01T03:32:50;102855.03;;;2.13;65.15
72285;BME280;60220;53.552;10.092;2023-03-01T03:35:21;102842.44;;;1.88;65.23
72285;BME280;60220;53.552;10.092;2023-03-01T03:37:48;102850.44;;;1.47;66.86
72285;BME280;60220;53.552;10.092;2023-03-01T03:40:34;102840.75;;;1.28;67.73
72285;BME280;60220;53.552;10.092;2023-03-01T03:43:01;102845.88;;;2.03;66.83
72285;BME280;60220;53.552;10.092;2023-03-01T03:45:28;102842.22;;;1.69;66.98
72285;BME280;60220;53.552;10.092;2023-03-01T03:47:54;102844.78;;;1.84;66.83
72285;BME280;60220;53.552;10.092;2023-03-01T03:50:22;102839.34;;;1.95;66.26
72285;BME280;60220;53.552;10.092;2023-03-01T03:52:49;102841.31;;;1.99;66.52
72285;BME280;60220;53.552;10.092;2023-03-01T03:55:16;102831.94;;;2.98;64.10
72285;BME280;60220;53.552;10.092;2023-03-01T03:57:45;102832.47;;;2.27;65.05
72285;BME280;60220;53.552;10.092;2023-03-01T04:00:18;102833.75;;;2.51;64.65
72285;BME280;60220;53.552;10.092;2023-03-01T04:02:47;102831.06;;;2.17;65.63
72285;BME280;60220;53.552;10.092;2023-03-01T04:05:16;102830.00;;;2.30;66.03
72285;BME280;60220;53.552;10.092;2023-03-01T04:07:45;102826.53;;;2.29;65.45
72285;BME280;60220;53.552;10.092;2023-03-01T04:10:14;102828.56;;;2.83;65.36
72285;BME280;60220;53.552;10.092;2023-03-01T04:12:41;102826.56;;;3.12;63.93
72285;BME280;60220;53.552;10.092;2023-03-01T04:15:10;102821.38;;;2.62;64.68
72285;BME280;60220;53.552;10.092;2023-03-01T04:17:39;102820.81;;;2.51;64.99
72285;BME280;60220;53.552;10.092;2023-03-01T04:20:08;102821.78;;;2.53;65.07
72285;BME280;60220;53.552;10.092;2023-03-01T04:22:35;102822.75;;;2.39;65.80
72285;BME280;60220;53.552;10.092;2023-03-01T04:25:06;102825.09;;;2.67;64.77
72285;BME280;60220;53.552;10.092;2023-03-01T04:27:33;102823.56;;;2.54;64.91
72285;BME280;60220;53.552;10.092;2023-03-01T04:30:00;102819.91;;;2.34;65.88
72285;BME280;60220;53.552;10.092;2023-03-01T04:32:27;102830.69;;;2.42;65.88
72285;BME280;60220;53.552;10.092;2023-03-01T04:34:54;102828.41;;;2.32;65.83
72285;BME280;60220;53.552;10.092;2023-03-01T04:37:20;102824.03;;;2.31;66.24
72285;BME280;60220;53.552;10.092;2023-03-01T04:39:49;102827.78;;;2.68;65.55
72285;BME280;60220;53.552;10.092;2023-03-01T04:42:18;102826.50;;;2.44;65.43
72285;BME280;60220;53.552;10.092;2023-03-01T04:44:45;102818.06;;;2.48;65.86
72285;BME280;60220;53.552;10.092;2023-03-01T04:47:12;102820.06;;;2.37;65.91
72285;BME280;60220;53.552;10.092;2023-03-01T04:49:39;102817.41;;;2.52;65.56
72285;BME280;60220;53.552;10.092;2023-03-01T04:52:05;102821.91;;;2.88;64.58
72285;BME280;60220;53.552;10.092;2023-03-01T04:54:33;102828.16;;;2.76;65.52
72285;BME280;60220;53.552;10.092;2023-03-01T04:57:03;102825.28;;;3.03;64.20
72285;BME280;60220;53.552;10.092;2023-03-01T04:59:31;102817.72;;;3.77;61.79
72285;BME280;60220;53.552;10.092;2023-03-01T05:01:57;102817.41;;;3.36;66.95
72285;BME280;60220;53.552;10.092;2023-03-01T05:04:25;102813.28;;;2.89;68.34
72285;BME280;60220;53.552;10.092;2023-03-01T05:06:52;102815.28;;;3.29;65.58
72285;BME280;60220;53.552;10.092;2023-03-01T05:09:21;102805.53;;;3.59;63.26
72285;BME280;60220;53.552;10.092;2023-03-01T05:11:47;102806.06;;;3.00;64.24
72285;BME280;60220;53.552;10.092;2023-03-01T05:14:15;102813.16;;;4.28;62.28
72285;BME280;60220;53.552;10.092;2023-03-01T05:16:43;102804.13;;;3.83;60.91
72285;BME280;60220;53.552;10.092;2023-03-01T05:19:12;102808.75;;;3.01;65.91
72285;BME280;60220;53.552;10.092;2023-03-01T05:21:42;102808.97;;;2.72;68.28
72285;BME280;60220;53.552;10.092;2023-03-01T05:24:35;102816.19;;;3.29;65.01
72285;BME280;60220;53.552;10.092;2023-03-01T05:27:02;102813.19;;;3.38;64.27
72285;BME280;60220;53.552;10.092;2023-03-01T05:29:30;102817.09;;;3.30;65.67
72285;BME280;60220;53.552;10.092;2023-03-01T05:32:04;102825.16;;;4.07;63.22
72285;BME280;60220;53.552;10.092;2023-03-01T05:34:33;102817.09;;;3.65;64.60
72285;BME280;60220;53.552;10.092;2023-03-01T05:37:00;102811.00;;;3.65;63.60
72285;BME280;60220;53.552;10.092;2023-03-01T05:39:29;102811.78;;;4.17;63.58
72285;BME280;60220;53.552;10.092;2023-03-01T05:41:58;102809.72;;;4.29;62.39
72285;BME280;60220;53.552;10.092;2023-03-01T05:44:25;102803.16;;;4.18;62.86
72285;BME280;60220;53.552;10.092;2023-03-01T05:46:54;102806.78;;;4.21;62.58
72285;BME280;60220;53.552;10.092;2023-03-01T05:49:23;102789.81;;;3.73;63.98
72285;BME280;60220;53.552;10.092;2023-03-01T05:51:52;102794.44;;;3.43;66.27
72285;BME280;60220;53.552;10.092;2023-03-01T05:54:21;102796.50;;;2.99;67.61
72285;BME280;60220;53.552;10.092;2023-03-01T05:56:50;102793.31;;;3.04;67.29
72285;BME280;60220;53.552;10.092;2023-03-01T05:59:17;102795.59;;;3.50;65.29
72285;BME280;60220;53.552;10.092;2023-03-01T06:01:47;102794.66;;;3.48;65.02
72285;BME280;60220;53.552;10.092;2023-03-01T06:04:16;102787.06;;;3.35;64.62
72285;BME280;60220;53.552;10.092;2023-03-01T06:06:44;102792.16;;;3.16;65.02
72285;BME280;60220;53.552;10.092;2023-03-01T06:09:10;102791.56;;;3.39;65.92
72285;BME280;60220;53.552;10.092;2023-03-01T06:11:37;102781.41;;;3.26;65.55
72285;BME280;60220;53.552;10.092;2023-03-01T06:14:08;102789.25;;;3.98;64.37
72285;BME280;60220;53.552;10.092;2023-03-01T06:16:41;102789.88;;;4.50;62.03
72285;BME280;60220;53.552;10.092;2023-03-01T06:19:08;102791.47;;;3.90;61.14
72285;BME280;60220;53.552;10.092;2023-03-01T06:21:34;102788.63;;;4.04;63.82
72285;BME280;60220;53.552;10.092;2023-03-01T06:24:03;102787.28;;;4.31;61.82
72285;BME280;60220;53.552;10.092;2023-03-01T06:26:31;102780.16;;;5.26;58.76
72285;BME280;60220;53.552;10.092;2023-03-01T06:28:58;102781.38;;;4.54;57.37
72285;BME280;60220;53.552;10.092;2023-03-01T06:31:26;102784.75;;;4.52;58.29
72285;BME280;60220;53.552;10.092;2023-03-01T06:33:53;102784.44;;;4.84;58.95
72285;BME280;60220;53.552;10.092;2023-03-01T06:36:20;102786.13;;;4.84;58.26
72285;BME280;60220;53.552;10.092;2023-03-01T06:38:49;102799.09;;;4.44;59.86
72285;BME280;60220;53.552;10.092;2023-03-01T06:41:19;102798.22;;;4.24;59.97
72285;BME280;60220;53.552;10.092;2023-03-01T06:43:46;102795.38;;;4.00;60.07
72285;BME280;60220;53.552;10.092;2023-03-01T06:46:13;102803.41;;;4.24;60.40
72285;BME280;60220;53.552;10.092;2023-03-01T06:48:39;102804.94;;;4.38;59.92
72285;BME280;60220;53.552;10.092;2023-03-01T06:51:06;102796.47;;;5.22;57.61
72285;BME280;60220;53.552;10.092;2023-03-01T06:53:32;102802.81;;;5.08;58.30
72285;BME280;60220;53.552;10.092;2023-03-01T06:55:59;102799.88;;;5.42;58.52
72285;BME280;60220;53.552;10.092;2023-03-01T06:58:29;102799.38;;;5.30;57.76
72285;BME280;60220;53.552;10.092;2023-03-01T07:00:56;102803.91;;;4.73;59.32
72285;BME280;60220;53.552;10.092;2023-03-01T07:03:22;102804.94;;;4.57;60.70
72285;BME280;60220;53.552;10.092;2023-03-01T07:05:49;102791.47;;;4.27;62.56
72285;BME280;60220;53.552;10.092;2023-03-01T07:08:17;102793.44;;;3.59;64.54
72285;BME280;60220;53.552;10.092;2023-03-01T07:10:44;102792.75;;;4.18;62.69
72285;BME280;60220;53.552;10.092;2023-03-01T07:13:11;102785.84;;;4.97;59.25
72285;BME280;60220;53.552;10.092;2023-03-01T07:15:41;102789.88;;;4.50;59.24
72285;BME280;60220;53.552;10.092;2023-03-01T07:18:08;102790.56;;;4.65;59.61
72285;BME280;60220;53.552;10.092;2023-03-01T07:20:34;102789.72;;;4.86;59.56
72285;BME280;60220;53.552;10.092;2023-03-01T07:23:01;102777.66;;;4.68;58.07
72285;BME280;60220;53.552;10.092;2023-03-01T07:25:30;102781.38;;;4.54;59.13
72285;BME280;60220;53.552;10.092;2023-03-01T07:27:58;102782.44;;;4.78;58.82
72285;BME280;60220;53.552;10.092;2023-03-01T07:30:25;102773.03;;;5.01;58.26
72285;BME280;60220;53.552;10.092;2023-03-01T07:32:55;102768.59;;;5.62;56.21
72285;BME280;60220;53.552;10.092;2023-03-01T07:35:22;102775.34;;;5.57;57.56
72285;BME280;60220;53.552;10.092;2023-03-01T07:37:49;102773.59;;;5.15;58.25
72285;BME280;60220;53.552;10.092;2023-03-01T07:40:16;102777.66;;;5.29;58.15
72285;BME280;60220;53.552;10.092;2023-03-01T07:42:45;102771.44;;;5.69;56.83
72285;BME280;60220;53.552;10.092;2023-03-01T07:45:11;102771.38;;;5.03;57.27
72285;BME280;60220;53.552;10.092;2023-03-01T07:47:39;102775.63;;;5.43;57.63
72285;BME280;60220;53.552;10.092;2023-03-01T07:50:09;102774.53;;;5.81;58.59
72285;BME280;60220;53.552;10.092;2023-03-01T07:52:35;102774.88;;;5.68;57.74
72285;BME280;60220;53.552;10.092;2023-03-01T07:55:02;102773.56;;;5.56;57.30
72285;BME280;60220;53.552;10.092;2023-03-01T07:57:29;102773.56;;;5.79;55.98
72285;BME280;60220;53.552;10.092;2023-03-01T07:59:56;102776.31;;;6.04;54.93
72285;BME280;60220;53.552;10.092;2023-03-01T08:02:23;102770.75;;;5.73;55.41
72285;BME280;60220;53.552;10.092;2023-03-01T08:04:52;102775.88;;;5.92;55.38
72285;BME280;60220;53.552;10.092;2023-03-01T08:07:22;102788.84;;;6.13;53.90
72285;BME280;60220;53.552;10.092;2023-03-01T08:09:51;102795.25;;;5.78;54.35
72285;BME280;60220;53.552;10.092;2023-03-01T08:12:17;102790.44;;;5.66;55.55
72285;BME280;60220;53.552;10.092;2023-03-01T08:14:44;102793.72;;;6.27;54.16
72285;BME280;60220;53.552;10.092;2023-03-01T08:17:13;102792.06;;;6.77;52.39
72285;BME280;60220;53.552;10.092;2023-03-01T08:19:40;102800.00;;;6.80;53.20
72285;BME280;60220;53.552;10.092;2023-03-01T08:22:09;102796.31;;;6.75;51.76
72285;BME280;60220;53.552;10.092;2023-03-01T08:24:38;102792.44;;;6.40;52.71
72285;BME280;60220;53.552;10.092;2023-03-01T08:27:04;102790.22;;;6.51;51.16
72285;BME280;60220;53.552;10.092;2023-03-01T08:29:31;102786.84;;;7.02;51.54
72285;BME280;60220;53.552;10.092;2023-03-01T08:31:58;102786.72;;;5.82;53.42
72285;BME280;60220;53.552;10.092;2023-03-01T08:34:25;102789.47;;;6.78;51.51
72285;BME280;60220;53.552;10.092;2023-03-01T08:36:52;102782.97;;;7.16;51.90
72285;BME280;60220;53.552;10.092;2023-03-01T08:39:20;102792.06;;;6.29;52.61
72285;BME280;60220;53.552;10.092;2023-03-01T08:41:48;102785.94;;;6.76;53.67
72285;BME280;60220;53.552;10.092;2023-03-01T08:44:15;102787.75;;;7.29;52.14
72285;BME280;60220;53.552;10.092;2023-03-01T08:46:43;102783.59;;;7.09;53.75
72285;BME280;60220;53.552;10.092;2023-03-01T08:49:12;102785.31;;;6.83;53.20
72285;BME280;60220;53.552;10.092;2023-03-01T08:51:39;102777.13;;;6.98;52.74
72285;BME280;60220;53.552;10.092;2023-03-01T08:54:10;102776.69;;;7.37;53.19
72285;BME280;60220;53.552;10.092;2023-03-01T08:56:40;102779.50;;;7.17;53.12
72285;BME280;60220;53.552;10.092;2023-03-01T08:59:08;102787.00;;;6.81;54.70
72285;BME280;60220;53.552;10.092;2023-03-01T09:01:35;102790.38;;;6.79;54.16
72285;BME280;60220;53.552;10.092;2023-03-01T09:04:02;102790.66;;;7.39;54.08
72285;BME280;60220;53.552;10.092;2023-03-01T09:06:30;102786.72;;;7.24;53.84
72285;BME280;60220;53.552;10.092;2023-03-01T09:09:01;102784.44;;;7.08;53.98
72285;BME280;60220;53.552;10.092;2023-03-01T09:11:30;102789.28;;;7.76;52.52
72285;BME280;60220;53.552;10.092;2023-03-01T09:13:57;102785.69;;;6.94;55.20
72285;BME280;60220;53.552;10.092;2023-03-01T09:16:25;102781.19;;;7.15;53.70
72285;BME280;60220;53.552;10.092;2023-03-01T09:18:53;102783.28;;;6.75;54.69
72285;BME280;60220;53.552;10.092;2023-03-01T09:21:21;102780.72;;;7.82;53.18
72285;BME280;60220;53.552;10.092;2023-03-01T09:23:50;102781.59;;;7.27;55.08
72285;BME280;60220;53.552;10.092;2023-03-01T09:26:19;102785.84;;;7.51;53.17
72285;BME280;60220;53.552;10.092;2023-03-01T09:28:48;102786.84;;;8.11;52.25
72285;BME280;60220;53.552;10.092;2023-03-01T09:31:17;102796.03;;;7.98;51.40
72285;BME280;60220;53.552;10.092;2023-03-01T09:33:47;102797.91;;;8.02;51.84
72285;BME280;60220;53.552;10.092;2023-03-01T09:36:16;102790.88;;;7.71;51.45
72285;BME280;60220;53.552;10.092;2023-03-01T09:38:43;102785.50;;;7.40;53.49
72285;BME280;60220;53.552;10.092;2023-03-01T09:41:11;102791.72;;;7.44;53.99
72285;BME280;60220;53.552;10.092;2023-03-01T09:43:48;102792.47;;;7.95;53.79
72285;BME280;60220;53.552;10.092;2023-03-01T09:46:20;102789.50;;;8.41;52.18
72285;BME280;60220;53.552;10.092;2023-03-01T09:48:51;102785.34;;;8.19;51.63
72285;BME280;60220;53.552;10.092;2023-03-01T09:51:23;102786.06;;;7.85;53.16
72285;BME280;60220;53.552;10.092;2023-03-01T09:53:55;102777.94;;;8.04;53.22
72285;BME280;60220;53.552;10.092;2023-03-01T09:56:32;102778.09;;;7.82;54.14
72285;BME280;60220;53.552;10.092;2023-03-01T09:59:07;102780.13;;;8.49;52.09
72285;BME280;60220;53.552;10.092;2023-03-01T10:01:40;102793.44;;;8.27;52.79
72285;BME280;60220;53.552;10.092;2023-03-01T10:04:28;102788.34;;;8.03;54.01
72285;BME280;60220;53.552;10.092;2023-03-01T10:07:07;102793.41;;;7.97;54.67
72285;BME280;60220;53.552;10.092;2023-03-01T10:09:41;102790.16;;;8.34;56.73
72285;BME280;60220;53.552;10.092;2023-03-01T10:12:10;102781.44;;;8.05;54.11
72285;BME280;60220;53.552;10.092;2023-03-01T10:14:46;102785.28;;;8.17;55.22
72285;BME280;60220;53.552;10.092;2023-03-01T10:17:25;102784.16;;;8.38;52.93
72285;BME280;60220;53.552;10.092;2023-03-01T10:19:55;102790.53;;;7.89;53.63
72285;BME280;60220;53.552;10.092;2023-03-01T10:22:32;102784.66;;;8.54;53.57
72285;BME280;60220;53.552;10.092;2023-03-01T10:25:03;102786.22;;;8.79;52.46
72285;BME280;60220;53.552;10.092;2023-03-01T10:27:36;102780.91;;;8.76;53.42
72285;BME280;60220;53.552;10.092;2023-03-01T10:30:12;102781.41;;;8.32;53.83
72285;BME280;60220;53.552;10.092;2023-03-01T10:32:42;102775.69;;;7.33;56.87
72285;BME280;60220;53.552;10.092;2023-03-01T10:35:19;102771.69;;;8.29;55.78
72285;BME280;60220;53.552;10.092;2023-03-01T10:37:57;102774.56;;;8.37;54.76
72285;BME280;60220;53.552;10.092;2023-03-01T10:40:24;102775.97;;;8.55;54.10
72285;BME280;60220;53.552;10.092;2023-03-01T10:42:53;102769.22;;;8.96;53.84
72285;BME280;60220;53.552;10.092;2023-03-01T10:45:31;102760.56;;;8.66;54.40
72285;BME280;60220;53.552;10.092;2023-03-01T10:48:12;102763.22;;;9.02;53.82
72285;BME280;60220;53.552;10.092;2023-03-01T10:50:44;102772.84;;;9.01;53.57
72285;BME280;60220;53.552;10.092;2023-03-01T10:53:24;102769.66;;;8.80;54.75
72285;BME280;60220;53.552;10.092;2023-03-01T10:56:03;102771.06;;;9.00;53.81
72285;BME280;60220;53.552;10.092;2023-03-01T10:58:31;102776.69;;;7.92;56.56
72285;BME280;60220;53.552;10.092;2023-03-01T11:01:00;102767.81;;;8.45;56.48
72285;BME280;60220;53.552;10.092;2023-03-01T11:03:29;102762.03;;;8.27;59.32
72285;BME280;60220;53.552;10.092;2023-03-01T11:06:06;102756.25;;;9.01;54.36
72285;BME280;60220;53.552;10.092;2023-03-01T11:08:46;102752.03;;;8.42;55.67
72285;BME280;60220;53.552;10.092;2023-03-01T11:11:26;102753.38;;;8.59;56.38
72285;BME280;60220;53.552;10.092;2023-03-01T11:13:58;102750.50;;;8.81;55.88
72285;BME280;60220;53.552;10.092;2023-03-01T11:16:32;102745.75;;;8.67;55.06
72285;BME280;60220;53.552;10.092;2023-03-01T11:19:06;102746.16;;;8.83;55.68
72285;BME280;60220;53.552;10.092;2023-03-01T11:21:46;102746.25;;;8.86;55.24
72285;BME280;60220;53.552;10.092;2023-03-01T11:24:15;102751.94;;;9.39;54.32
72285;BME280;60220;53.552;10.092;2023-03-01T11:26:50;102750.59;;;9.20;53.83
72285;BME280;60220;53.552;10.092;2023-03-01T11:29:27;102745.25;;;9.16;55.58
72285;BME280;60220;53.552;10.092;2023-03-01T11:31:59;102742.66;;;8.50;56.50
72285;BME280;60220;53.552;10.092;2023-03-01T11:34:38;102736.63;;;9.20;55.25
72285;BME280;60220;53.552;10.092;2023-03-01T11:37:20;102740.25;;;9.25;55.18
72285;BME280;60220;53.552;10.092;2023-03-01T11:39:55;102728.13;;;8.61;54.63
72285;BME280;60220;53.552;10.092;2023-03-01T11:42:29;102734.38;;;8.35;58.50
72285;BME280;60220;53.552;10.092;2023-03-01T11:45:06;102730.72;;;9.67;55.80
72285;BME280;60220;53.552;10.092;2023-03-01T11:47:51;102730.66;;;8.58;56.33
72285;BME280;60220;53.552;10.092;2023-03-01T11:50:28;102727.50;;;9.04;56.19
72285;BME280;60220;53.552;10.092;2023-03-01T11:53:24;102724.22;;;10.29;53.47
72285;BME280;60220;53.552;10.092;2023-03-01T11:56:02;102726.41;;;9.69;53.27
72285;BME280;60220;53.552;10.092;2023-03-01T12:01:48;102715.22;;;10.60;51.72
72285;BME280;60220;53.552;10.092;2023-03-01T12:04:44;102713.88;;;9.97;53.50
72285;BME280;60220;53.552;10.092;2023-03-01T12:07:20;102712.75;;;9.45;54.51
72285;BME280;60220;53.552;10.092;2023-03-01T12:10:17;102709.50;;;9.55;54.20
72285;BME280;60220;53.552;10.092;2023-03-01T12:16:12;102711.03;;;10.25;53.06
72285;BME280;60220;53.552;10.092;2023-03-01T12:19:08;102705.31;;;8.90;56.06
72285;BME280;60220;53.552;10.092;2023-03-01T12:21:51;102709.91;;;9.73;54.66
72285;BME280;60220;53.552;10.092;2023-03-01T12:24:39;102703.75;;;9.71;55.46
72285;BME280;60220;53.552;10.092;2023-03-01T12:27:33;102696.84;;;10.17;52.73
72285;BME280;60220;53.552;10.092;2023-03-01T12:30:15;102691.97;;;10.35;52.57
72285;BME280;60220;53.552;10.092;2023-03-01T12:32:54;102683.28;;;10.39;53.11
72285;BME280;60220;53.552;10.092;2023-03-01T12:35:36;102681.91;;;10.59;52.36
72285;BME280;60220;53.552;10.092;2023-03-01T12:38:19;102687.38;;;10.71;51.93
72285;BME280;60220;53.552;10.092;2023-03-01T12:44:01;102664.25;;;10.52;52.19
72285;BME280;60220;53.552;10.092;2023-03-01T12:46:42;102662.72;;;11.78;49.41
72285;BME280;60220;53.552;10.092;2023-03-01T12:49:21;102656.84;;;11.34;49.73
72285;BME280;60220;53.552;10.092;2023-03-01T12:51:54;102653.00;;;11.10;50.54
72285;BME280;60220;53.552;10.092;2023-03-01T12:54:26;102655.34;;;10.94;51.63
72285;BME280;60220;53.552;10.092;2023-03-01T12:56:55;102643.16;;;10.46;51.82
72285;BME280;60220;53.552;10.092;2023-03-01T12:59:30;102647.72;;;11.09;51.36
72285;BME280;60220;53.552;10.092;2023-03-01T13:02:05;102644.25;;;11.13;50.52
72285;BME280;60220;53.552;10.092;2023-03-01T13:04:52;102636.06;;;11.53;50.96
72285;BME280;60220;53.552;10.092;2023-03-01T13:07:35;102636.72;;;11.37;49.13
72285;BME280;60220;53.552;10.092;2023-03-01T13:10:17;102637.56;;;11.33;50.10
72285;BME280;60220;53.552;10.092;2023-03-01T13:12:52;102635.47;;;11.11;51.77
72285;BME280;60220;53.552;10.092;2023-03-01T13:15:28;102633.91;;;11.88;48.54
72285;BME280;60220;53.552;10.092;2023-03-01T13:18:32;102630.84;;;11.56;50.12